메인 페이지
METAR-TAF:

METAR-TAF

공항 :

불더시티, 네바다, 미국

위도: 35-56-50N, 경도: 114-51-37W, 고도: 671m

현재 날씨관측

예보는 15분 전, 17:35시(UTC)에 발표되었습니다.
서북서15kt, 순간 최대 풍속 22kt
온도 9°C
습도 18%
기압 1005 hPa
시정: 16.1km
고도 8000ft 상공 구름 많음

METAR: KBVU 191735Z AUTO 29015G22KT 10SM BKN080 09/M14 A2968 RMK AO2

시각: 09:50 (17:50 UTC)


TAF: 누락

4,000개 이상의 공항 관측 자료 및 예보 (METAR 및 TAF 보고).

지도상에서 검색 가능한 기상관측소가 노란 점과 빨간 점으로 표시되어 있습니다.

기상관측소 명을 보려면 표시 위로 마우스를 이동하세요.

날씨 관측과 예보를 보려면 클릭하세요.

지도 변경 : 확대하려면 엑스 표시가 있는 녹색 버튼, 축소하려면 빼기 표시가 있는 녹색 버튼, 다음 페이지의 지도를 보려면 녹색 화살표를 클릭하세요.


METAR-TAF: